sensor_id;sensor_type;location;lat;lon;timestamp;temperature;humidity
33645;DHT22;19986;48.190;16.366;2023-02-02T05:05:18;5.60;99.90
33645;DHT22;19986;48.190;16.366;2023-02-02T05:07:45;5.50;99.90
33645;DHT22;19986;48.190;16.366;2023-02-02T05:10:11;5.50;99.90
33645;DHT22;19986;48.190;16.366;2023-02-02T05:12:37;5.50;99.90
33645;DHT22;19986;48.190;16.366;2023-02-02T05:15:04;5.60;99.90
33645;DHT22;19986;48.190;16.366;2023-02-02T05:17:30;5.60;99.90
33645;DHT22;19986;48.190;16.366;2023-02-02T05:19:59;5.70;99.90
33645;DHT22;19986;48.190;16.366;2023-02-02T05:22:25;5.70;99.90
33645;DHT22;19986;48.190;16.366;2023-02-02T05:24:51;5.70;99.90
33645;DHT22;19986;48.190;16.366;2023-02-02T05:27:17;5.70;99.90
33645;DHT22;19986;48.190;16.366;2023-02-02T05:29:43;5.70;99.90
33645;DHT22;19986;48.190;16.366;2023-02-02T05:32:08;5.80;99.90
33645;DHT22;19986;48.190;16.366;2023-02-02T05:34:34;5.80;99.90
33645;DHT22;19986;48.190;16.366;2023-02-02T05:37:00;5.80;99.90
33645;DHT22;19986;48.190;16.366;2023-02-02T05:39:26;5.90;99.90
33645;DHT22;19986;48.190;16.366;2023-02-02T05:41:52;5.80;99.90
33645;DHT22;19986;48.190;16.366;2023-02-02T05:44:18;5.80;99.90
33645;DHT22;19986;48.190;16.366;2023-02-02T05:46:43;5.80;99.90
33645;DHT22;19986;48.190;16.366;2023-02-02T05:49:14;5.80;99.90
33645;DHT22;19986;48.190;16.366;2023-02-02T05:51:43;5.80;99.90
33645;DHT22;19986;48.190;16.366;2023-02-02T05:54:10;5.80;99.90
33645;DHT22;19986;48.190;16.366;2023-02-02T05:56:36;5.80;99.90
33645;DHT22;19986;48.190;16.366;2023-02-02T05:59:02;5.80;99.90
33645;DHT22;19986;48.190;16.366;2023-02-02T06:01:32;5.80;99.90
33645;DHT22;19986;48.190;16.366;2023-02-02T06:03:58;5.80;99.90
33645;DHT22;19986;48.190;16.366;2023-02-02T06:06:24;5.80;99.90
33645;DHT22;19986;48.190;16.366;2023-02-02T06:08:50;5.80;99.90
33645;DHT22;19986;48.190;16.366;2023-02-02T06:11:16;5.80;99.90
33645;DHT22;19986;48.190;16.366;2023-02-02T06:13:43;5.90;99.90
33645;DHT22;19986;48.190;16.366;2023-02-02T06:16:09;5.80;99.90
33645;DHT22;19986;48.190;16.366;2023-02-02T06:18:35;5.90;99.90
33645;DHT22;19986;48.190;16.366;2023-02-02T06:21:04;5.90;99.90
33645;DHT22;19986;48.190;16.366;2023-02-02T06:23:32;5.90;99.90
33645;DHT22;19986;48.190;16.366;2023-02-02T06:25:58;5.90;99.90
33645;DHT22;19986;48.190;16.366;2023-02-02T06:28:25;5.90;99.90
33645;DHT22;19986;48.190;16.366;2023-02-02T06:30:51;5.90;99.90
33645;DHT22;19986;48.190;16.366;2023-02-02T06:33:16;5.90;99.90
33645;DHT22;19986;48.190;16.366;2023-02-02T06:35:42;6.00;99.90
33645;DHT22;19986;48.190;16.366;2023-02-02T06:38:08;5.90;99.90
33645;DHT22;19986;48.190;16.366;2023-02-02T06:40:35;5.90;99.90
33645;DHT22;19986;48.190;16.366;2023-02-02T06:43:02;5.90;99.90
33645;DHT22;19986;48.190;16.366;2023-02-02T06:45:29;6.00;99.90
33645;DHT22;19986;48.190;16.366;2023-02-02T06:47:59;6.00;99.90
33645;DHT22;19986;48.190;16.366;2023-02-02T06:50:28;6.10;99.90
33645;DHT22;19986;48.190;16.366;2023-02-02T06:52:54;6.00;99.90
33645;DHT22;19986;48.190;16.366;2023-02-02T06:55:20;6.00;99.90
33645;DHT22;19986;48.190;16.366;2023-02-02T06:57:46;6.00;99.90
33645;DHT22;19986;48.190;16.366;2023-02-02T07:00:12;6.00;99.90
33645;DHT22;19986;48.190;16.366;2023-02-02T07:02:38;6.10;99.90
33645;DHT22;19986;48.190;16.366;2023-02-02T07:05:04;6.20;99.90
33645;DHT22;19986;48.190;16.366;2023-02-02T07:07:32;6.30;99.90
33645;DHT22;19986;48.190;16.366;2023-02-02T07:09:58;6.40;99.90
33645;DHT22;19986;48.190;16.366;2023-02-02T07:12:25;6.50;99.90
33645;DHT22;19986;48.190;16.366;2023-02-02T07:14:52;6.50;99.90
33645;DHT22;19986;48.190;16.366;2023-02-02T07:17:18;6.60;99.90
33645;DHT22;19986;48.190;16.366;2023-02-02T07:19:44;6.60;99.90
33645;DHT22;19986;48.190;16.366;2023-02-02T07:22:10;6.60;99.90
33645;DHT22;19986;48.190;16.366;2023-02-02T07:24:36;6.60;99.90
33645;DHT22;19986;48.190;16.366;2023-02-02T07:27:05;6.60;99.90
33645;DHT22;19986;48.190;16.366;2023-02-02T07:29:31;6.60;99.90
33645;DHT22;19986;48.190;16.366;2023-02-02T07:31:56;6.70;99.90
33645;DHT22;19986;48.190;16.366;2023-02-02T07:34:22;6.70;99.90
33645;DHT22;19986;48.190;16.366;2023-02-02T07:36:48;6.80;99.90
33645;DHT22;19986;48.190;16.366;2023-02-02T07:39:14;6.90;99.90
33645;DHT22;19986;48.190;16.366;2023-02-02T07:41:40;6.90;99.90
33645;DHT22;19986;48.190;16.366;2023-02-02T07:44:12;7.00;99.90
33645;DHT22;19986;48.190;16.366;2023-02-02T07:46:44;7.00;99.90
33645;DHT22;19986;48.190;16.366;2023-02-02T07:49:12;7.00;99.90
33645;DHT22;19986;48.190;16.366;2023-02-02T07:51:39;7.00;99.90
33645;DHT22;19986;48.190;16.366;2023-02-02T07:54:05;7.00;99.90
33645;DHT22;19986;48.190;16.366;2023-02-02T07:56:32;7.10;99.90
33645;DHT22;19986;48.190;16.366;2023-02-02T07:58:58;7.10;99.90
33645;DHT22;19986;48.190;16.366;2023-02-02T08:01:26;7.20;99.90
33645;DHT22;19986;48.190;16.366;2023-02-02T08:03:53;7.20;99.90
33645;DHT22;19986;48.190;16.366;2023-02-02T08:06:21;7.40;99.90
33645;DHT22;19986;48.190;16.366;2023-02-02T08:08:48;7.40;99.90
33645;DHT22;19986;48.190;16.366;2023-02-02T08:11:16;7.30;99.90
33645;DHT22;19986;48.190;16.366;2023-02-02T08:13:43;7.40;99.90
33645;DHT22;19986;48.190;16.366;2023-02-02T08:16:09;7.40;99.90
33645;DHT22;19986;48.190;16.366;2023-02-02T08:18:36;7.50;99.90
33645;DHT22;19986;48.190;16.366;2023-02-02T08:21:04;7.40;99.90
33645;DHT22;19986;48.190;16.366;2023-02-02T08:23:31;7.40;99.90
33645;DHT22;19986;48.190;16.366;2023-02-02T08:28:40;7.20;99.90
33645;DHT22;19986;48.190;16.366;2023-02-02T08:31:10;7.00;99.90
33645;DHT22;19986;48.190;16.366;2023-02-02T08:33:37;7.00;99.90
33645;DHT22;19986;48.190;16.366;2023-02-02T08:36:06;7.00;99.90
33645;DHT22;19986;48.190;16.366;2023-02-02T08:38:33;7.00;99.90
33645;DHT22;19986;48.190;16.366;2023-02-02T08:41:11;7.20;99.90
33645;DHT22;19986;48.190;16.366;2023-02-02T08:43:38;7.30;99.90
33645;DHT22;19986;48.190;16.366;2023-02-02T08:46:05;7.30;99.90
33645;DHT22;19986;48.190;16.366;2023-02-02T08:48:33;7.30;99.90
33645;DHT22;19986;48.190;16.366;2023-02-02T08:50:59;7.40;99.90
33645;DHT22;19986;48.190;16.366;2023-02-02T08:53:25;7.30;99.90
33645;DHT22;19986;48.190;16.366;2023-02-02T08:56:02;7.40;99.90
33645;DHT22;19986;48.190;16.366;2023-02-02T08:58:29;7.50;99.90
33645;DHT22;19986;48.190;16.366;2023-02-02T09:01:07;7.50;99.90
33645;DHT22;19986;48.190;16.366;2023-02-02T09:03:34;7.50;99.90
33645;DHT22;19986;48.190;16.366;2023-02-02T09:06:08;7.60;99.90
33645;DHT22;19986;48.190;16.366;2023-02-02T09:08:35;7.50;99.90
33645;DHT22;19986;48.190;16.366;2023-02-02T09:11:22;7.50;99.90
33645;DHT22;19986;48.190;16.366;2023-02-02T09:13:51;7.50;99.90
33645;DHT22;19986;48.190;16.366;2023-02-02T09:16:17;7.60;99.90
33645;DHT22;19986;48.190;16.366;2023-02-02T09:18:44;7.60;99.90
33645;DHT22;19986;48.190;16.366;2023-02-02T09:21:13;7.70;99.90
33645;DHT22;19986;48.190;16.366;2023-02-02T09:23:41;7.80;99.90
33645;DHT22;19986;48.190;16.366;2023-02-02T09:26:20;7.80;99.90
33645;DHT22;19986;48.190;16.366;2023-02-02T09:28:55;7.90;99.90
33645;DHT22;19986;48.190;16.366;2023-02-02T09:31:22;7.90;99.90
33645;DHT22;19986;48.190;16.366;2023-02-02T09:33:49;7.90;99.90
33645;DHT22;19986;48.190;16.366;2023-02-02T09:36:20;7.90;99.90
33645;DHT22;19986;48.190;16.366;2023-02-02T09:38:47;7.90;99.90
33645;DHT22;19986;48.190;16.366;2023-02-02T09:49:27;8.00;99.90
33645;DHT22;19986;48.190;16.366;2023-02-02T09:52:02;7.90;99.90
33645;DHT22;19986;48.190;16.366;2023-02-02T09:55:14;8.00;99.90
33645;DHT22;19986;48.190;16.366;2023-02-02T09:57:46;8.00;99.90
33645;DHT22;19986;48.190;16.366;2023-02-02T10:00:37;7.90;99.90
33645;DHT22;19986;48.190;16.366;2023-02-02T10:03:22;8.00;99.90
33645;DHT22;19986;48.190;16.366;2023-02-02T10:06:29;8.00;99.90
33645;DHT22;19986;48.190;16.366;2023-02-02T10:09:18;8.00;99.90
33645;DHT22;19986;48.190;16.366;2023-02-02T10:14:45;8.20;99.90
33645;DHT22;19986;48.190;16.366;2023-02-02T10:22:53;8.60;99.90
33645;DHT22;19986;48.190;16.366;2023-02-02T10:25:27;8.60;99.90
33645;DHT22;19986;48.190;16.366;2023-02-02T10:28:07;8.60;99.90
33645;DHT22;19986;48.190;16.366;2023-02-02T10:30:44;8.50;99.90
33645;DHT22;19986;48.190;16.366;2023-02-02T10:33:38;8.50;99.90
33645;DHT22;19986;48.190;16.366;2023-02-02T10:42:31;8.70;99.90
33645;DHT22;19986;48.190;16.366;2023-02-02T10:44:55;8.60;99.90
33645;DHT22;19986;48.190;16.366;2023-02-02T10:47:31;8.70;99.90
33645;DHT22;19986;48.190;16.366;2023-02-02T10:50:18;8.60;99.90
33645;DHT22;19986;48.190;16.366;2023-02-02T10:52:51;8.60;99.90
33645;DHT22;19986;48.190;16.366;2023-02-02T10:55:41;8.70;99.90
33645;DHT22;19986;48.190;16.366;2023-02-02T11:00:45;8.60;99.90
33645;DHT22;19986;48.190;16.366;2023-02-02T11:03:14;8.70;99.90
33645;DHT22;19986;48.190;16.366;2023-02-02T11:05:40;8.60;99.90
33645;DHT22;19986;48.190;16.366;2023-02-02T11:16:17;8.50;99.90
33645;DHT22;19986;48.190;16.366;2023-02-02T11:18:44;8.60;99.90
33645;DHT22;19986;48.190;16.366;2023-02-02T11:21:27;8.60;99.90
33645;DHT22;19986;48.190;16.366;2023-02-02T11:24:04;8.50;99.90
33645;DHT22;19986;48.190;16.366;2023-02-02T11:26:49;8.40;99.90
33645;DHT22;19986;48.190;16.366;2023-02-02T11:31:53;8.40;99.90
33645;DHT22;19986;48.190;16.366;2023-02-02T11:34:22;8.40;99.90
33645;DHT22;19986;48.190;16.366;2023-02-02T11:37:12;8.40;99.90
33645;DHT22;19986;48.190;16.366;2023-02-02T11:39:42;8.40;99.90
33645;DHT22;19986;48.190;16.366;2023-02-02T11:42:17;8.40;99.90
33645;DHT22;19986;48.190;16.366;2023-02-02T11:44:56;8.40;99.90
33645;DHT22;19986;48.190;16.366;2023-02-02T11:47:27;8.30;99.90
33645;DHT22;19986;48.190;16.366;2023-02-02T11:49:56;8.30;99.90
33645;DHT22;19986;48.190;16.366;2023-02-02T11:52:28;8.20;99.90
33645;DHT22;19986;48.190;16.366;2023-02-02T11:55:00;8.20;99.90
33645;DHT22;19986;48.190;16.366;2023-02-02T11:57:28;8.10;99.90
33645;DHT22;19986;48.190;16.366;2023-02-02T12:02:36;8.10;99.90
33645;DHT22;19986;48.190;16.366;2023-02-02T12:07:35;8.20;99.90
33645;DHT22;19986;48.190;16.366;2023-02-02T12:21:03;8.20;99.90
33645;DHT22;19986;48.190;16.366;2023-02-02T12:26:29;8.30;99.90
33645;DHT22;19986;48.190;16.366;2023-02-02T12:34:41;8.50;99.90
33645;DHT22;19986;48.190;16.366;2023-02-02T12:43:03;8.50;99.90
33645;DHT22;19986;48.190;16.366;2023-02-02T12:48:33;8.60;99.90
33645;DHT22;19986;48.190;16.366;2023-02-02T13:05:12;8.40;99.90
33645;DHT22;19986;48.190;16.366;2023-02-02T13:08:05;8.30;99.90
33645;DHT22;19986;48.190;16.366;2023-02-02T13:10:48;8.30;99.90
33645;DHT22;19986;48.190;16.366;2023-02-02T13:13:35;8.40;99.90
33645;DHT22;19986;48.190;16.366;2023-02-02T13:16:06;8.30;99.90
33645;DHT22;19986;48.190;16.366;2023-02-02T13:19:06;8.30;99.90
33645;DHT22;19986;48.190;16.366;2023-02-02T13:21:36;8.30;99.90
33645;DHT22;19986;48.190;16.366;2023-02-02T13:24:05;8.40;99.90
33645;DHT22;19986;48.190;16.366;2023-02-02T13:26:41;8.40;99.90
33645;DHT22;19986;48.190;16.366;2023-02-02T13:32:02;8.40;99.90
33645;DHT22;19986;48.190;16.366;2023-02-02T13:34:42;8.30;99.90
33645;DHT22;19986;48.190;16.366;2023-02-02T13:40:07;8.20;99.90
33645;DHT22;19986;48.190;16.366;2023-02-02T13:56:57;8.20;99.90
33645;DHT22;19986;48.190;16.366;2023-02-02T14:02:32;8.10;99.90
33645;DHT22;19986;48.190;16.366;2023-02-02T14:05:04;8.10;99.90
33645;DHT22;19986;48.190;16.366;2023-02-02T14:08:01;8.00;99.90
33645;DHT22;19986;48.190;16.366;2023-02-02T14:10:37;8.00;99.90
33645;DHT22;19986;48.190;16.366;2023-02-02T14:13:45;7.90;99.90
33645;DHT22;19986;48.190;16.366;2023-02-02T14:19:05;8.00;99.90
33645;DHT22;19986;48.190;16.366;2023-02-02T14:26:59;7.90;99.90
33645;DHT22;19986;48.190;16.366;2023-02-02T14:31:55;7.60;99.90
33645;DHT22;19986;48.190;16.366;2023-02-02T14:34:33;7.50;99.90
33645;DHT22;19986;48.190;16.366;2023-02-02T14:39:58;7.50;99.90
33645;DHT22;19986;48.190;16.366;2023-02-02T14:45:37;7.60;99.90
33645;DHT22;19986;48.190;16.366;2023-02-02T14:58:36;7.60;99.90
33645;DHT22;19986;48.190;16.366;2023-02-02T15:06:34;7.50;99.90
33645;DHT22;19986;48.190;16.366;2023-02-02T15:17:25;7.30;99.90
33645;DHT22;19986;48.190;16.366;2023-02-02T15:31:45;7.10;99.90
33645;DHT22;19986;48.190;16.366;2023-02-02T15:33:54;7.10;99.90
33645;DHT22;19986;48.190;16.366;2023-02-02T15:36:22;7.00;99.90
33645;DHT22;19986;48.190;16.366;2023-02-02T15:38:52;7.00;99.90
33645;DHT22;19986;48.190;16.366;2023-02-02T15:41:35;7.00;99.90
33645;DHT22;19986;48.190;16.366;2023-02-02T15:44:20;7.00;99.90
33645;DHT22;19986;48.190;16.366;2023-02-02T15:46:47;7.00;99.90
33645;DHT22;19986;48.190;16.366;2023-02-02T15:49:25;6.90;99.90
33645;DHT22;19986;48.190;16.366;2023-02-02T15:51:57;6.90;99.90
33645;DHT22;19986;48.190;16.366;2023-02-02T15:54:29;6.90;99.90
33645;DHT22;19986;48.190;16.366;2023-02-02T15:57:00;6.90;99.90
33645;DHT22;19986;48.190;16.366;2023-02-02T15:59:29;6.90;99.90
33645;DHT22;19986;48.190;16.366;2023-02-02T16:05:44;6.80;99.90
33645;DHT22;19986;48.190;16.366;2023-02-02T16:08:15;6.90;99.90
33645;DHT22;19986;48.190;16.366;2023-02-02T16:10:42;6.80;99.90
33645;DHT22;19986;48.190;16.366;2023-02-02T16:13:23;6.80;99.90
33645;DHT22;19986;48.190;16.366;2023-02-02T16:15:58;6.80;99.90
33645;DHT22;19986;48.190;16.366;2023-02-02T16:18:24;6.90;99.90
33645;DHT22;19986;48.190;16.366;2023-02-02T16:20:51;6.90;99.90
33645;DHT22;19986;48.190;16.366;2023-02-02T16:23:24;6.80;99.90
33645;DHT22;19986;48.190;16.366;2023-02-02T16:25:55;6.80;99.90
33645;DHT22;19986;48.190;16.366;2023-02-02T16:28:22;6.80;99.90
33645;DHT22;19986;48.190;16.366;2023-02-02T16:30:50;6.80;99.90
33645;DHT22;19986;48.190;16.366;2023-02-02T16:33:36;6.70;99.90
33645;DHT22;19986;48.190;16.366;2023-02-02T16:38:44;6.60;99.90
33645;DHT22;19986;48.190;16.366;2023-02-02T16:41:12;6.70;99.90
33645;DHT22;19986;48.190;16.366;2023-02-02T16:43:40;6.70;99.90
33645;DHT22;19986;48.190;16.366;2023-02-02T16:46:10;6.70;99.90
33645;DHT22;19986;48.190;16.366;2023-02-02T16:48:44;6.70;99.90
33645;DHT22;19986;48.190;16.366;2023-02-02T16:53:43;6.70;99.90
33645;DHT22;19986;48.190;16.366;2023-02-02T16:56:27;6.70;99.90
33645;DHT22;19986;48.190;16.366;2023-02-02T16:58:53;6.60;99.90
33645;DHT22;19986;48.190;16.366;2023-02-02T17:01:32;6.50;99.90
33645;DHT22;19986;48.190;16.366;2023-02-02T17:03:59;6.50;99.90
33645;DHT22;19986;48.190;16.366;2023-02-02T17:06:28;6.50;99.90
33645;DHT22;19986;48.190;16.366;2023-02-02T17:08:55;6.50;99.90
33645;DHT22;19986;48.190;16.366;2023-02-02T17:11:23;6.50;99.90
33645;DHT22;19986;48.190;16.366;2023-02-02T17:13:51;6.40;99.90
33645;DHT22;19986;48.190;16.366;2023-02-02T17:16:20;6.40;99.90
33645;DHT22;19986;48.190;16.366;2023-02-02T17:18:46;6.30;99.90
33645;DHT22;19986;48.190;16.366;2023-02-02T17:21:15;6.30;99.90
33645;DHT22;19986;48.190;16.366;2023-02-02T17:23:42;6.30;99.90
33645;DHT22;19986;48.190;16.366;2023-02-02T17:26:10;6.20;99.90
33645;DHT22;19986;48.190;16.366;2023-02-02T17:28:40;6.20;99.90
33645;DHT22;19986;48.190;16.366;2023-02-02T17:31:09;6.30;99.90
33645;DHT22;19986;48.190;16.366;2023-02-02T17:33:37;6.30;99.90
33645;DHT22;19986;48.190;16.366;2023-02-02T17:36:04;6.20;99.90
33645;DHT22;19986;48.190;16.366;2023-02-02T17:38:31;6.20;99.90
33645;DHT22;19986;48.190;16.366;2023-02-02T17:40:59;6.30;99.90
33645;DHT22;19986;48.190;16.366;2023-02-02T17:43:28;6.30;99.90
33645;DHT22;19986;48.190;16.366;2023-02-02T17:45:55;6.40;99.90
33645;DHT22;19986;48.190;16.366;2023-02-02T17:48:21;6.30;99.90
33645;DHT22;19986;48.190;16.366;2023-02-02T17:50:47;6.30;99.90
33645;DHT22;19986;48.190;16.366;2023-02-02T17:53:16;6.30;99.90
33645;DHT22;19986;48.190;16.366;2023-02-02T17:55:44;6.30;99.90
33645;DHT22;19986;48.190;16.366;2023-02-02T17:58:11;6.30;99.90
33645;DHT22;19986;48.190;16.366;2023-02-02T18:00:39;6.30;99.90
33645;DHT22;19986;48.190;16.366;2023-02-02T18:03:25;6.30;99.90
33645;DHT22;19986;48.190;16.366;2023-02-02T18:05:53;6.30;99.90
33645;DHT22;19986;48.190;16.366;2023-02-02T18:08:19;6.30;99.90
33645;DHT22;19986;48.190;16.366;2023-02-02T18:10:45;6.30;99.90
33645;DHT22;19986;48.190;16.366;2023-02-02T18:13:16;6.30;99.90
33645;DHT22;19986;48.190;16.366;2023-02-02T18:15:44;6.30;99.90
33645;DHT22;19986;48.190;16.366;2023-02-02T18:18:10;6.30;99.90
33645;DHT22;19986;48.190;16.366;2023-02-02T18:20:44;6.20;99.90
33645;DHT22;19986;48.190;16.366;2023-02-02T18:23:11;6.30;99.90
33645;DHT22;19986;48.190;16.366;2023-02-02T18:25:37;6.20;99.90
33645;DHT22;19986;48.190;16.366;2023-02-02T18:28:05;6.20;99.90
33645;DHT22;19986;48.190;16.366;2023-02-02T18:30:32;6.20;99.90
33645;DHT22;19986;48.190;16.366;2023-02-02T18:33:01;6.20;99.90
33645;DHT22;19986;48.190;16.366;2023-02-02T18:35:28;6.20;99.90
33645;DHT22;19986;48.190;16.366;2023-02-02T18:37:55;6.20;99.90
33645;DHT22;19986;48.190;16.366;2023-02-02T18:40:22;6.20;99.90
33645;DHT22;19986;48.190;16.366;2023-02-02T18:42:50;6.10;99.90
33645;DHT22;19986;48.190;16.366;2023-02-02T18:45:16;6.10;99.90
33645;DHT22;19986;48.190;16.366;2023-02-02T18:47:42;6.00;99.90
33645;DHT22;19986;48.190;16.366;2023-02-02T18:50:09;6.10;99.90
33645;DHT22;19986;48.190;16.366;2023-02-02T18:52:35;6.10;99.90
33645;DHT22;19986;48.190;16.366;2023-02-02T18:55:02;6.10;99.90
33645;DHT22;19986;48.190;16.366;2023-02-02T18:57:29;6.10;99.90
33645;DHT22;19986;48.190;16.366;2023-02-02T18:59:55;6.20;99.90
33645;DHT22;19986;48.190;16.366;2023-02-02T19:02:22;6.10;99.90
33645;DHT22;19986;48.190;16.366;2023-02-02T19:04:50;6.20;99.90
33645;DHT22;19986;48.190;16.366;2023-02-02T19:07:35;6.10;99.90
33645;DHT22;19986;48.190;16.366;2023-02-02T19:10:20;6.20;99.90
33645;DHT22;19986;48.190;16.366;2023-02-02T19:13:13;6.10;99.90
33645;DHT22;19986;48.190;16.366;2023-02-02T19:15:43;6.20;99.90
33645;DHT22;19986;48.190;16.366;2023-02-02T19:18:20;6.20;99.90
33645;DHT22;19986;48.190;16.366;2023-02-02T19:20:47;6.20;99.90
33645;DHT22;19986;48.190;16.366;2023-02-02T19:25:41;6.30;99.90
33645;DHT22;19986;48.190;16.366;2023-02-02T19:28:29;6.30;99.90
33645;DHT22;19986;48.190;16.366;2023-02-02T19:30:58;6.20;99.90
33645;DHT22;19986;48.190;16.366;2023-02-02T19:33:40;6.20;99.90
33645;DHT22;19986;48.190;16.366;2023-02-02T19:36:19;6.20;99.90
33645;DHT22;19986;48.190;16.366;2023-02-02T19:38:47;6.20;99.90
33645;DHT22;19986;48.190;16.366;2023-02-02T19:41:22;6.30;99.90
33645;DHT22;19986;48.190;16.366;2023-02-02T19:43:54;6.30;99.90
33645;DHT22;19986;48.190;16.366;2023-02-02T19:46:24;6.30;99.90
33645;DHT22;19986;48.190;16.366;2023-02-02T19:48:55;6.30;99.90
33645;DHT22;19986;48.190;16.366;2023-02-02T19:51:43;6.30;99.90
33645;DHT22;19986;48.190;16.366;2023-02-02T19:57:20;6.30;99.90
33645;DHT22;19986;48.190;16.366;2023-02-02T19:59:47;6.30;99.90
33645;DHT22;19986;48.190;16.366;2023-02-02T20:05:19;6.20;99.90
33645;DHT22;19986;48.190;16.366;2023-02-02T20:07:47;6.20;99.90
33645;DHT22;19986;48.190;16.366;2023-02-02T20:10:21;6.20;99.90
33645;DHT22;19986;48.190;16.366;2023-02-02T20:12:50;6.20;99.90
33645;DHT22;19986;48.190;16.366;2023-02-02T20:15:36;6.20;99.90
33645;DHT22;19986;48.190;16.366;2023-02-02T20:18:10;6.20;99.90
33645;DHT22;19986;48.190;16.366;2023-02-02T20:20:40;6.20;99.90
33645;DHT22;19986;48.190;16.366;2023-02-02T20:24:00;6.30;99.90
33645;DHT22;19986;48.190;16.366;2023-02-02T20:26:22;6.30;99.90
33645;DHT22;19986;48.190;16.366;2023-02-02T20:28:55;6.30;99.90
33645;DHT22;19986;48.190;16.366;2023-02-02T20:31:24;6.30;99.90
33645;DHT22;19986;48.190;16.366;2023-02-02T20:33:54;6.30;99.90
33645;DHT22;19986;48.190;16.366;2023-02-02T20:36:41;6.30;99.90
33645;DHT22;19986;48.190;16.366;2023-02-02T20:39:32;6.30;99.90
33645;DHT22;19986;48.190;16.366;2023-02-02T20:41:59;6.30;99.90
33645;DHT22;19986;48.190;16.366;2023-02-02T20:44:27;6.30;99.90
33645;DHT22;19986;48.190;16.366;2023-02-02T20:46:55;6.20;99.90
33645;DHT22;19986;48.190;16.366;2023-02-02T20:49:23;6.20;99.90
33645;DHT22;19986;48.190;16.366;2023-02-02T20:51:54;6.30;99.90
33645;DHT22;19986;48.190;16.366;2023-02-02T20:54:21;6.30;99.90
33645;DHT22;19986;48.190;16.366;2023-02-02T20:56:48;6.20;99.90
